createdAt,value
2022-10-23T00:08:52.003Z,13.33
2022-10-23T00:12:22.489Z,13.30
2022-10-23T00:15:16.889Z,13.30
2022-10-23T00:18:16.705Z,13.28
2022-10-23T00:21:05.742Z,13.26
2022-10-23T00:23:43.469Z,13.27
2022-10-23T00:26:16.109Z,13.27
2022-10-23T00:28:54.103Z,13.26
2022-10-23T00:31:29.897Z,13.29
2022-10-23T00:34:47.953Z,13.27
2022-10-23T00:41:37.916Z,13.28
2022-10-23T00:51:10.169Z,13.23
2022-10-23T00:58:05.460Z,13.26
2022-10-23T01:01:27.447Z,13.24
2022-10-23T01:04:00.673Z,13.26
2022-10-23T01:06:36.621Z,13.26
2022-10-23T01:09:38.400Z,13.28
2022-10-23T01:12:19.724Z,13.29
2022-10-23T01:15:17.966Z,13.29
2022-10-23T01:19:07.965Z,13.27
2022-10-23T01:25:20.457Z,13.31
2022-10-23T01:29:04.036Z,13.33
2022-10-23T01:32:15.213Z,13.31
2022-10-23T01:42:55.221Z,13.31
2022-10-23T01:46:42.789Z,13.30
2022-10-23T01:49:38.663Z,13.30
2022-10-23T01:52:57.877Z,13.30
2022-10-23T01:55:53.497Z,13.32
2022-10-23T02:02:21.985Z,13.28
2022-10-23T02:05:10.273Z,13.27
2022-10-23T02:07:45.933Z,13.25
2022-10-23T02:10:39.927Z,13.23
2022-10-23T02:13:56.380Z,13.27
2022-10-23T02:17:02.265Z,13.29
2022-10-23T02:19:56.761Z,13.30
2022-10-23T02:22:29.971Z,13.29
2022-10-23T02:25:48.101Z,13.29
2022-10-23T02:28:42.793Z,13.26
2022-10-23T02:31:23.871Z,13.24
2022-10-23T02:34:57.245Z,13.23
2022-10-23T02:38:42.356Z,13.22
2022-10-23T02:49:44.363Z,13.19
2022-10-23T02:53:03.286Z,13.20
2022-10-23T02:56:34.525Z,13.17
2022-10-23T03:04:13.575Z,13.15
2022-10-23T03:06:41.693Z,13.16
2022-10-23T03:09:39.097Z,13.11
2022-10-23T03:12:35.736Z,13.10
2022-10-23T03:15:14.868Z,13.09
2022-10-23T03:20:56.149Z,13.01
2022-10-23T03:23:24.092Z,12.97
2022-10-23T03:25:59.613Z,12.88
2022-10-23T03:28:45.099Z,12.77
2022-10-23T03:31:19.188Z,12.71
2022-10-23T03:34:19.456Z,12.70
2022-10-23T03:36:53.710Z,12.71
2022-10-23T03:40:21.026Z,12.71
2022-10-23T03:43:01.265Z,12.70
2022-10-23T03:46:13.063Z,12.69
2022-10-23T03:49:19.663Z,12.67
2022-10-23T03:55:00.469Z,12.67
2022-10-23T03:57:46.575Z,12.69
2022-10-23T04:00:22.140Z,12.71
2022-10-23T04:03:12.999Z,12.73
2022-10-23T04:08:49.447Z,12.76
2022-10-23T04:11:17.969Z,12.76
2022-10-23T04:14:03.842Z,12.71
2022-10-23T04:16:31.348Z,12.64
2022-10-23T04:18:59.672Z,12.54
2022-10-23T04:21:26.325Z,12.50
2022-10-23T04:24:06.234Z,12.45
2022-10-23T04:26:38.449Z,12.43
2022-10-23T04:29:37.894Z,12.45
2022-10-23T04:32:06.749Z,12.40
2022-10-23T04:34:35.648Z,12.34
2022-10-23T04:37:10.407Z,12.29
2022-10-23T04:39:52.599Z,12.19
2022-10-23T04:43:06.641Z,12.11
2022-10-23T04:45:51.533Z,12.06
2022-10-23T04:48:38.431Z,12.01
2022-10-23T04:52:22.214Z,11.99
2022-10-23T04:55:26.295Z,11.99
2022-10-23T04:58:17.376Z,11.99
2022-10-23T05:01:18.046Z,11.99
2022-10-23T05:07:23.475Z,12.00
2022-10-23T05:10:47.574Z,11.98
2022-10-23T05:13:21.414Z,11.99
2022-10-23T05:16:50.344Z,12.01
2022-10-23T05:19:45.395Z,12.01
2022-10-23T05:22:49.342Z,12.06
2022-10-23T05:25:17.463Z,12.08
2022-10-23T05:28:00.567Z,12.15
2022-10-23T05:30:33.357Z,12.16
2022-10-23T05:33:03.571Z,12.19
2022-10-23T05:35:36.519Z,12.21
2022-10-23T05:38:03.233Z,12.24
2022-10-23T05:40:29.835Z,12.26
2022-10-23T05:43:01.800Z,12.30
2022-10-23T05:45:49.766Z,12.34
2022-10-23T05:48:37.233Z,12.35
2022-10-23T05:51:27.217Z,12.35
2022-10-23T05:54:09.713Z,12.32
2022-10-23T05:56:55.780Z,12.26
2022-10-23T05:59:30.222Z,12.18
2022-10-23T06:02:26.401Z,12.17
2022-10-23T06:04:59.656Z,12.12
2022-10-23T06:07:33.640Z,12.13
2022-10-23T06:10:05.183Z,12.18
2022-10-23T06:13:01.771Z,12.19
2022-10-23T06:15:28.870Z,12.25
2022-10-23T06:18:17.048Z,12.25
2022-10-23T06:20:55.283Z,12.24
2022-10-23T06:23:48.750Z,12.24
2022-10-23T06:27:00.059Z,12.24
2022-10-23T06:30:05.878Z,12.19
2022-10-23T06:32:43.673Z,12.20
2022-10-23T06:35:12.148Z,12.24
2022-10-23T06:37:38.880Z,12.25
2022-10-23T06:40:13.970Z,12.27
2022-10-23T06:43:01.130Z,12.28
2022-10-23T06:45:46.621Z,12.33
2022-10-23T06:48:13.272Z,12.34
2022-10-23T06:50:56.415Z,12.35
2022-10-23T06:57:12.227Z,12.48
2022-10-23T06:59:43.383Z,12.50
2022-10-23T07:02:10.712Z,12.52
2022-10-23T07:04:46.277Z,12.53
2022-10-23T07:07:22.486Z,12.57
2022-10-23T07:09:49.543Z,12.59
2022-10-23T07:12:29.482Z,12.62
2022-10-23T07:15:27.755Z,12.62
2022-10-23T07:17:56.955Z,12.66
2022-10-23T07:20:49.293Z,12.72
2022-10-23T07:23:16.498Z,12.75
2022-10-23T07:25:51.875Z,12.76
2022-10-23T07:28:35.251Z,12.77
2022-10-23T07:31:27.963Z,12.78
2022-10-23T07:34:46.444Z,12.83
2022-10-23T07:37:29.792Z,12.87
2022-10-23T07:40:35.275Z,12.92
2022-10-23T07:43:03.251Z,12.90
2022-10-23T07:45:37.543Z,12.86
2022-10-23T07:48:33.998Z,12.76
2022-10-23T07:51:08.219Z,12.77
2022-10-23T07:54:40.437Z,12.80
2022-10-23T07:57:21.378Z,12.76
2022-10-23T08:00:25.779Z,12.76
2022-10-23T08:03:00.437Z,12.81
2022-10-23T08:05:28.765Z,12.79
2022-10-23T08:08:01.699Z,12.88
2022-10-23T08:10:29.944Z,12.94
2022-10-23T08:12:57.589Z,13.03
2022-10-23T08:15:48.231Z,13.11
2022-10-23T08:18:35.136Z,13.20
2022-10-23T08:21:03.320Z,13.24
2022-10-23T08:23:33.002Z,13.31
2022-10-23T08:26:03.044Z,13.35
2022-10-23T08:28:31.994Z,13.27
2022-10-23T08:31:06.900Z,13.30
2022-10-23T08:33:33.408Z,13.34
2022-10-23T08:35:59.866Z,13.33
2022-10-23T08:38:32.123Z,13.43
2022-10-23T08:41:01.425Z,13.52
2022-10-23T08:43:41.973Z,13.58
2022-10-23T08:46:33.134Z,13.67
2022-10-23T08:49:53.179Z,13.67
2022-10-23T08:52:26.852Z,13.67
2022-10-23T08:55:16.820Z,13.70
2022-10-23T08:57:50.008Z,13.74
2022-10-23T09:00:17.536Z,13.86
2022-10-23T09:02:49.730Z,13.95
2022-10-23T09:05:32.829Z,13.98
2022-10-23T09:08:08.666Z,14.07
2022-10-23T09:10:55.471Z,14.18
2022-10-23T09:13:54.924Z,14.29
2022-10-23T09:16:53.371Z,14.38
2022-10-23T09:19:26.225Z,14.49
2022-10-23T09:21:54.734Z,14.54
2022-10-23T09:24:24.058Z,14.54
2022-10-23T09:26:52.630Z,14.55
2022-10-23T09:29:35.656Z,14.61
2022-10-23T09:32:05.603Z,14.64
2022-10-23T09:34:35.212Z,14.67
2022-10-23T09:37:05.021Z,14.69
2022-10-23T09:39:34.583Z,14.71
2022-10-23T09:42:09.373Z,14.75
2022-10-23T09:44:39.325Z,14.83
2022-10-23T09:47:05.688Z,14.91
2022-10-23T09:49:34.394Z,14.95
2022-10-23T09:52:11.494Z,15.00
2022-10-23T09:54:44.570Z,15.03
2022-10-23T09:57:19.759Z,15.02
2022-10-23T09:59:54.645Z,15.05
2022-10-23T10:02:31.691Z,15.10
2022-10-23T10:05:26.087Z,15.09
2022-10-23T10:08:24.465Z,15.13
2022-10-23T10:10:58.384Z,15.19
2022-10-23T10:13:33.819Z,15.24
2022-10-23T10:16:06.333Z,15.29
2022-10-23T10:18:41.344Z,15.35
2022-10-23T10:21:25.981Z,15.34
2022-10-23T10:24:12.522Z,15.31
2022-10-23T10:26:51.380Z,15.32
2022-10-23T10:29:48.146Z,15.32
2022-10-23T10:32:36.901Z,15.35
2022-10-23T10:35:35.009Z,15.42
2022-10-23T10:38:21.937Z,15.54
2022-10-23T10:41:17.907Z,15.57
2022-10-23T10:43:58.058Z,15.52
2022-10-23T10:46:28.617Z,15.49
2022-10-23T10:49:10.680Z,15.51
2022-10-23T10:51:45.987Z,15.49
2022-10-23T10:54:18.497Z,15.49
2022-10-23T10:56:45.839Z,15.50
2022-10-23T10:59:18.668Z,15.49
2022-10-23T11:01:50.773Z,15.53
2022-10-23T11:04:28.104Z,15.56
2022-10-23T11:06:55.444Z,15.61
2022-10-23T11:09:27.301Z,15.66
2022-10-23T11:11:53.829Z,15.71
2022-10-23T11:14:28.268Z,15.77
2022-10-23T11:17:08.758Z,15.79
2022-10-23T11:20:15.380Z,15.83
2022-10-23T11:22:48.184Z,15.88
2022-10-23T11:25:38.715Z,15.91
2022-10-23T11:28:24.888Z,15.98
2022-10-23T11:31:11.872Z,16.06
2022-10-23T11:33:55.134Z,16.15
2022-10-23T11:36:44.453Z,16.22
2022-10-23T11:39:17.263Z,16.33
2022-10-23T11:42:11.748Z,16.38
2022-10-23T11:44:48.216Z,16.47
2022-10-23T11:47:44.001Z,16.50
2022-10-23T11:50:10.297Z,16.58
2022-10-23T11:52:45.616Z,16.64
2022-10-23T11:55:20.845Z,16.67
2022-10-23T11:58:18.808Z,16.71
2022-10-23T12:01:24.204Z,16.78
2022-10-23T12:04:14.118Z,16.83
2022-10-23T12:06:57.884Z,16.84
2022-10-23T12:13:39.488Z,16.78
2022-10-23T12:16:09.483Z,16.83
2022-10-23T12:18:59.676Z,16.89
2022-10-23T12:21:41.455Z,16.96
2022-10-23T12:24:26.586Z,17.02
2022-10-23T12:27:06.526Z,17.11
2022-10-23T12:30:01.209Z,17.18
2022-10-23T12:33:11.424Z,17.29
2022-10-23T12:35:53.935Z,17.28
2022-10-23T12:38:26.984Z,17.31
2022-10-23T12:41:01.203Z,17.34
2022-10-23T12:43:30.686Z,17.34
2022-10-23T12:46:20.965Z,17.32
2022-10-23T12:48:52.681Z,17.35
2022-10-23T12:51:29.612Z,17.37
2022-10-23T12:54:02.893Z,17.42
2022-10-23T12:56:35.351Z,17.48
2022-10-23T12:59:14.073Z,17.53
2022-10-23T13:01:52.440Z,17.63
2022-10-23T13:04:44.001Z,17.68
2022-10-23T13:07:10.643Z,17.74
2022-10-23T13:09:58.725Z,17.78
2022-10-23T13:12:39.672Z,17.84
2022-10-23T13:15:37.317Z,17.89
2022-10-23T13:18:05.091Z,17.90
2022-10-23T13:20:39.001Z,17.94
2022-10-23T13:23:18.982Z,17.99
2022-10-23T13:25:55.920Z,18.04
2022-10-23T13:28:23.708Z,18.12
2022-10-23T13:31:33.076Z,18.18
2022-10-23T13:33:59.477Z,18.26
2022-10-23T13:36:28.212Z,18.30
2022-10-23T13:39:10.452Z,18.34
2022-10-23T13:41:40.149Z,18.38
2022-10-23T13:44:07.076Z,18.37
2022-10-23T13:46:33.568Z,18.37
2022-10-23T13:49:01.335Z,18.39
2022-10-23T13:51:29.483Z,18.36
2022-10-23T13:53:57.483Z,18.38
2022-10-23T13:56:25.446Z,18.38
2022-10-23T13:58:51.882Z,18.39
2022-10-23T14:01:27.049Z,18.38
2022-10-23T14:04:19.383Z,18.36
2022-10-23T14:06:45.850Z,18.34
2022-10-23T14:09:17.084Z,18.31
2022-10-23T14:11:50.452Z,18.28
2022-10-23T14:14:26.473Z,18.26
2022-10-23T14:16:53.142Z,18.24
2022-10-23T14:22:04.922Z,18.20
2022-10-23T14:24:33.707Z,18.16
2022-10-23T14:27:00.166Z,18.13
2022-10-23T14:29:26.553Z,18.12
2022-10-23T14:31:53.042Z,18.09
2022-10-23T14:34:19.661Z,18.06
2022-10-23T14:36:49.816Z,18.03
2022-10-23T14:39:18.318Z,17.98
2022-10-23T14:45:02.969Z,17.92
2022-10-23T14:47:29.687Z,17.88
2022-10-23T14:50:07.390Z,17.83
2022-10-23T14:52:33.823Z,17.81
2022-10-23T14:55:01.615Z,17.77
2022-10-23T14:57:28.230Z,17.71
2022-10-23T15:00:24.227Z,17.67
2022-10-23T15:03:17.904Z,17.63
2022-10-23T15:05:44.939Z,17.57
2022-10-23T15:08:47.737Z,17.55
2022-10-23T15:11:14.273Z,17.51
2022-10-23T15:13:40.672Z,17.48
2022-10-23T15:16:09.664Z,17.47
2022-10-23T15:21:18.455Z,17.45
2022-10-23T15:23:49.778Z,17.43
2022-10-23T15:26:31.762Z,17.42
2022-10-23T15:29:07.143Z,17.39
2022-10-23T15:31:42.325Z,17.34
2022-10-23T15:34:22.533Z,17.26
2022-10-23T15:36:49.415Z,17.23
2022-10-23T15:39:35.928Z,17.19
2022-10-23T15:42:16.442Z,17.17
2022-10-23T15:45:01.552Z,17.16
2022-10-23T15:47:28.214Z,17.14
2022-10-23T15:49:54.684Z,17.10
2022-10-23T15:52:21.090Z,17.07
2022-10-23T15:54:49.877Z,17.04
2022-10-23T15:57:16.368Z,17.02
2022-10-23T15:59:42.784Z,16.99
2022-10-23T16:02:41.108Z,16.93
2022-10-23T16:05:07.877Z,16.86
2022-10-23T16:07:34.282Z,16.79
2022-10-23T16:10:00.832Z,16.72
2022-10-23T16:12:27.383Z,16.69
2022-10-23T16:14:53.743Z,16.65
2022-10-23T16:17:20.313Z,16.59
2022-10-23T16:19:46.691Z,16.55
2022-10-23T16:22:16.095Z,16.55
2022-10-23T16:24:50.251Z,16.53
2022-10-23T16:27:17.152Z,16.50
2022-10-23T16:29:43.552Z,16.45
2022-10-23T16:32:10.000Z,16.44
2022-10-23T16:34:36.393Z,16.41
2022-10-23T16:37:02.967Z,16.37
2022-10-23T16:39:37.805Z,16.34
2022-10-23T16:45:29.213Z,16.34
2022-10-23T16:47:55.639Z,16.31
2022-10-23T16:50:22.971Z,16.29
2022-10-23T16:52:52.013Z,16.27
2022-10-23T16:55:19.827Z,16.27
2022-10-23T16:57:46.310Z,16.27
2022-10-23T17:00:12.983Z,16.26
2022-10-23T17:02:39.447Z,16.26
2022-10-23T17:05:07.383Z,16.24
2022-10-23T17:07:34.086Z,16.23
2022-10-23T17:10:00.592Z,16.23
2022-10-23T17:12:27.058Z,16.25
2022-10-23T17:14:59.528Z,16.28
2022-10-23T17:17:27.856Z,16.30
2022-10-23T17:19:54.253Z,16.33
2022-10-23T17:25:23.396Z,16.37
2022-10-23T17:27:53.030Z,16.35
2022-10-23T17:30:19.564Z,16.36
2022-10-23T17:33:06.672Z,16.37
2022-10-23T17:35:39.658Z,16.36
2022-10-23T17:38:11.176Z,16.38
2022-10-23T17:40:41.525Z,16.36
2022-10-23T17:43:20.754Z,16.30
2022-10-23T17:45:47.227Z,16.25
2022-10-23T17:48:14.614Z,16.26
2022-10-23T17:50:41.332Z,16.29
2022-10-23T17:53:16.202Z,16.35
2022-10-23T17:55:51.011Z,16.35
2022-10-23T17:58:25.375Z,16.32
2022-10-23T18:00:54.912Z,16.26
2022-10-23T18:03:28.854Z,16.26
2022-10-23T18:05:55.662Z,16.28
2022-10-23T18:08:39.465Z,16.25
2022-10-23T18:11:52.312Z,16.21
2022-10-23T18:14:20.161Z,16.16
2022-10-23T18:16:50.198Z,16.10
2022-10-23T18:19:23.455Z,16.09
2022-10-23T18:21:59.761Z,16.05
2022-10-23T18:24:33.896Z,16.03
2022-10-23T18:27:13.375Z,16.00
2022-10-23T18:29:43.225Z,15.98
2022-10-23T18:32:16.367Z,15.98
2022-10-23T18:34:43.239Z,15.99
2022-10-23T18:37:14.648Z,15.96
2022-10-23T18:40:09.013Z,15.97
2022-10-23T18:42:48.938Z,15.94
2022-10-23T18:45:24.304Z,15.95
2022-10-23T18:47:51.334Z,15.95
2022-10-23T18:50:41.285Z,15.91
2022-10-23T18:53:07.754Z,15.93
2022-10-23T18:58:05.694Z,15.89
2022-10-23T19:00:32.150Z,15.91
2022-10-23T19:03:08.833Z,15.92
2022-10-23T19:05:41.169Z,15.95
2022-10-23T19:08:12.432Z,15.94
2022-10-23T19:11:00.337Z,15.93
2022-10-23T19:13:27.155Z,15.92
2022-10-23T19:16:04.777Z,15.91
2022-10-23T19:18:38.631Z,15.90
2022-10-23T19:21:09.739Z,15.91
2022-10-23T19:23:37.465Z,15.92
2022-10-23T19:26:08.756Z,15.92
2022-10-23T19:31:26.425Z,15.92
2022-10-23T19:33:53.505Z,15.92
2022-10-23T19:36:40.554Z,15.89
2022-10-23T19:39:07.029Z,15.90
2022-10-23T19:42:01.545Z,15.92
2022-10-23T19:44:28.206Z,15.96
2022-10-23T19:46:55.065Z,15.95
2022-10-23T19:49:29.655Z,15.99
2022-10-23T19:52:34.846Z,15.98
2022-10-23T19:55:03.315Z,16.00
2022-10-23T19:57:37.457Z,15.99
2022-10-23T20:00:07.684Z,16.04
2022-10-23T20:05:32.540Z,16.12
2022-10-23T20:07:59.003Z,16.14
2022-10-23T20:10:25.796Z,16.14
2022-10-23T20:12:56.664Z,16.17
2022-10-23T20:15:38.166Z,16.17
2022-10-23T20:18:05.216Z,16.19
2022-10-23T20:20:34.323Z,16.22
2022-10-23T20:23:03.379Z,16.22
2022-10-23T20:25:29.787Z,16.22
2022-10-23T20:27:56.213Z,16.25
2022-10-23T20:30:25.169Z,16.26
2022-10-23T20:32:54.195Z,16.26
2022-10-23T20:35:20.636Z,16.30
2022-10-23T20:37:47.351Z,16.31
2022-10-23T20:40:13.796Z,16.28
2022-10-23T20:42:42.504Z,16.29
2022-10-23T20:45:10.262Z,16.37
2022-10-23T20:47:36.690Z,16.42
2022-10-23T20:50:03.284Z,16.42
2022-10-23T20:55:00.034Z,16.42
2022-10-23T20:57:26.475Z,16.37
2022-10-23T20:59:53.189Z,16.38
2022-10-23T21:02:21.640Z,16.40
2022-10-23T21:04:50.362Z,16.42
2022-10-23T21:07:21.453Z,16.48
2022-10-23T21:09:51.076Z,16.51
2022-10-23T21:12:21.666Z,16.52
2022-10-23T21:14:48.156Z,16.54
2022-10-23T21:17:19.221Z,16.60
2022-10-23T21:19:45.797Z,16.63
2022-10-23T21:22:16.546Z,16.67
2022-10-23T21:24:53.287Z,16.74
2022-10-23T21:27:24.319Z,16.80
2022-10-23T21:29:53.304Z,16.85
2022-10-23T21:32:20.730Z,16.90
2022-10-23T21:34:48.939Z,16.94
2022-10-23T21:37:16.047Z,16.98
2022-10-23T21:39:43.493Z,17.02
2022-10-23T21:42:11.514Z,17.07
2022-10-23T21:44:39.348Z,17.11
2022-10-23T21:47:06.055Z,17.11
2022-10-23T21:49:58.211Z,17.10
2022-10-23T21:52:24.727Z,17.14
2022-10-23T21:54:53.956Z,17.16
2022-10-23T21:57:20.512Z,17.20
2022-10-23T21:59:47.646Z,17.22
2022-10-23T22:02:14.252Z,17.27
2022-10-23T22:04:41.136Z,17.33
2022-10-23T22:07:07.781Z,17.36
2022-10-23T22:09:34.569Z,17.34
2022-10-23T22:12:03.317Z,17.36
2022-10-23T22:14:37.596Z,17.38
2022-10-23T22:17:09.684Z,17.41
2022-10-23T22:20:05.997Z,17.44
2022-10-23T22:23:31.220Z,17.48
2022-10-23T22:25:57.804Z,17.50
2022-10-23T22:28:26.370Z,17.49
2022-10-23T22:31:11.717Z,17.48
2022-10-23T22:33:49.294Z,17.51
2022-10-23T22:36:15.777Z,17.51
2022-10-23T22:39:52.729Z,17.52
2022-10-23T22:42:20.247Z,17.60
2022-10-23T22:44:56.841Z,17.62
2022-10-23T22:47:23.356Z,17.64
2022-10-23T22:50:47.239Z,17.64
2022-10-23T22:53:13.690Z,17.74
2022-10-23T22:58:56.081Z,17.79
2022-10-23T23:01:51.893Z,17.87
2022-10-23T23:07:32.680Z,17.94
2022-10-23T23:09:59.405Z,17.98
2022-10-23T23:12:25.828Z,17.98
2022-10-23T23:14:52.237Z,18.09
2022-10-23T23:17:18.882Z,18.15
2022-10-23T23:19:45.382Z,18.18
2022-10-23T23:25:44.057Z,18.20
2022-10-23T23:28:12.451Z,18.22
2022-10-23T23:30:40.085Z,18.24
2022-10-23T23:33:09.078Z,18.27
2022-10-23T23:35:42.611Z,18.31
2022-10-23T23:38:38.732Z,18.36
2022-10-23T23:45:13.908Z,18.37
2022-10-23T23:48:09.490Z,18.46
2022-10-23T23:51:05.742Z,18.52
2022-10-23T23:53:32.547Z,18.58
2022-10-23T23:56:08.411Z,18.63
2022-10-23T23:58:35.241Z,18.65
